Time;durP1;ratioP1;P1;durP2;ratioP2;P2;SDS_P1;SDS_P2;PMS_P1;PMS_P2;Temp;Humidity;BMP_temperature;BMP_pressure;BME280_temperature;BME280_humidity;BME280_pressure;Samples;Min_cycle;Max_cycle;Signal;HPM_P1;HPM_P2
2022/09/19 00:00:25;;;;;;;;;;;16.80;59.60;;;;;;5088919;28;19916;-68
2022/09/19 00:02:50;;;;;;;;;;;16.80;59.70;;;;;;5098546;28;19928;-67
2022/09/19 00:05:16;;;;;;;;;;;16.80;59.70;;;;;;5109156;28;19916;-67
2022/09/19 00:07:43;;;;;;;;;;;16.80;59.70;;;;;;5107977;28;19920;-67
2022/09/19 00:10:08;;;;;;;;;;;16.70;59.70;;;;;;5091018;28;19920;-66
2022/09/19 00:12:34;;;;;;;;;;;16.80;59.80;;;;;;5108792;28;19919;-67
2022/09/19 00:15:00;;;;;;;;;;;16.80;59.80;;;;;;5097951;28;19921;-67
2022/09/19 00:17:25;;;;;;;;;;;17.10;60.00;;;;;;5095286;28;20376;-67
2022/09/19 00:19:51;;;;;;;;;;;17.60;58.50;;;;;;5077320;28;19958;-66
2022/09/19 00:22:17;;;;;;;;;;;18.10;57.40;;;;;;5076877;28;19949;-67
2022/09/19 00:24:45;;;;;;;;;;;18.70;56.10;;;;;;5076798;28;19998;-67
2022/09/19 00:27:12;;;;;;;;;;;19.40;54.50;;;;;;5077369;28;19916;-67
2022/09/19 00:29:40;;;;;;;;;;;20.40;52.60;;;;;;5093732;28;20479;-67
2022/09/19 00:32:07;;;;;;;;;;;21.30;50.70;;;;;;5077182;28;19946;-67
2022/09/19 00:34:33;;;;;;;;;;;22.00;49.00;;;;;;5094898;28;19920;-67
2022/09/19 00:36:58;;;;;;;;;;;22.60;47.80;;;;;;5076902;28;20360;-69
2022/09/19 00:39:24;;;;;;;;;;;22.90;46.90;;;;;;5076587;28;20035;-69
2022/09/19 00:41:49;;;;;;;;;;;23.00;46.50;;;;;;5076795;28;19966;-67
2022/09/19 00:47:08;;;;;;;;;;;22.90;46.60;;;;;;5089888;28;19913;-67
2022/09/19 00:49:37;;;;;;;;;;;22.60;46.80;;;;;;5088415;28;19920;-67
2022/09/19 00:52:04;;;;;;;;;;;22.40;47.30;;;;;;5088505;28;20007;-67
2022/09/19 00:54:33;;;;;;;;;;;22.10;47.80;;;;;;5088767;28;19920;-67
2022/09/19 00:57:00;;;;;;;;;;;21.90;48.30;;;;;;5088660;28;19920;-67
2022/09/19 00:59:26;;;;;;;;;;;21.60;48.80;;;;;;5088610;28;20264;-68
2022/09/19 01:01:53;;;;;;;;;;;21.40;49.40;;;;;;5088229;28;20399;-67
2022/09/19 01:04:20;;;;;;;;;;;21.10;49.80;;;;;;5088251;28;19920;-67
2022/09/19 01:06:58;;;;;;;;;;;20.90;50.30;;;;;;5089282;28;20368;-67
2022/09/19 01:09:30;;;;;;;;;;;20.70;50.80;;;;;;5088453;28;19920;-69
2022/09/19 01:12:16;;;;;;;;;;;20.50;51.30;;;;;;5088019;28;19923;-67
2022/09/19 01:14:53;;;;;;;;;;;20.20;51.60;;;;;;5088347;28;19921;-67
2022/09/19 01:17:21;;;;;;;;;;;20.00;52.10;;;;;;5088285;28;19920;-67
2022/09/19 01:20:04;;;;;;;;;;;19.80;52.50;;;;;;5087967;28;19917;-67
2022/09/19 01:22:41;;;;;;;;;;;19.70;52.80;;;;;;5089168;28;20015;-67
2022/09/19 01:25:21;;;;;;;;;;;19.50;53.20;;;;;;5089112;28;20330;-67
2022/09/19 01:28:10;;;;;;;;;;;19.30;53.50;;;;;;5087880;28;20424;-70
2022/09/19 01:30:38;;;;;;;;;;;19.20;53.80;;;;;;5088969;28;19916;-69
2022/09/19 01:33:08;;;;;;;;;;;19.10;54.20;;;;;;5087767;28;19920;-67
2022/09/19 01:35:37;;;;;;;;;;;19.00;54.40;;;;;;5087702;28;20394;-67
2022/09/19 01:38:12;;;;;;;;;;;18.90;54.60;;;;;;5089120;28;19969;-67
2022/09/19 01:40:38;;;;;;;;;;;18.80;54.80;;;;;;5088936;28;19920;-67
2022/09/19 01:43:05;;;;;;;;;;;18.70;55.00;;;;;;5087872;28;19970;-67
2022/09/19 01:45:32;;;;;;;;;;;18.60;55.30;;;;;;5087320;28;19924;-67
2022/09/19 01:48:05;;;;;;;;;;;18.60;55.40;;;;;;5087353;28;20376;-67
2022/09/19 01:50:39;;;;;;;;;;;18.50;55.60;;;;;;5088565;28;19916;-67
2022/09/19 01:53:24;;;;;;;;;;;18.40;55.80;;;;;;5087744;28;19923;-67
2022/09/19 01:58:51;;;;;;;;;;;18.30;56.10;;;;;;5090243;28;19912;-67
2022/09/19 02:04:06;;;;;;;;;;;18.20;56.40;;;;;;5110234;27;20295;-69
2022/09/19 02:06:37;;;;;;;;;;;18.20;56.50;;;;;;5108229;28;20002;-67
2022/09/19 02:09:08;;;;;;;;;;;18.20;56.40;;;;;;5108918;28;19965;-66
2022/09/19 02:11:33;;;;;;;;;;;18.40;56.30;;;;;;5108984;28;19920;-67
2022/09/19 02:14:16;;;;;;;;;;;18.50;56.10;;;;;;5109032;28;20437;-67
2022/09/19 02:16:47;;;;;;;;;;;18.60;55.80;;;;;;5109005;28;20291;-67
2022/09/19 02:19:16;;;;;;;;;;;18.80;55.60;;;;;;5109163;28;19924;-66
2022/09/19 02:21:47;;;;;;;;;;;18.80;55.30;;;;;;5108795;28;20398;-67
2022/09/19 02:24:16;;;;;;;;;;;19.00;55.10;;;;;;5109646;28;19920;-67
2022/09/19 02:26:44;;;;;;;;;;;19.10;54.90;;;;;;5110062;28;19920;-67
2022/09/19 02:29:12;;;;;;;;;;;19.20;54.60;;;;;;5108391;28;19920;-67
2022/09/19 02:31:38;;;;;;;;;;;19.20;54.40;;;;;;5108385;28;19930;-67
2022/09/19 02:34:06;;;;;;;;;;;19.20;54.30;;;;;;5108654;28;19920;-67
2022/09/19 02:39:17;;;;;;;;;;;19.30;54.30;;;;;;5089777;28;19923;-67
2022/09/19 02:41:52;;;;;;;;;;;19.20;54.20;;;;;;5088645;28;20423;-67
2022/09/19 02:44:21;;;;;;;;;;;19.20;54.30;;;;;;5088755;28;19934;-67
2022/09/19 02:47:06;;;;;;;;;;;19.10;54.40;;;;;;5088476;28;19920;-68
2022/09/19 02:49:43;;;;;;;;;;;19.00;54.50;;;;;;5087915;28;20372;-67
2022/09/19 02:52:13;;;;;;;;;;;18.90;54.70;;;;;;5088472;28;19917;-67
2022/09/19 02:54:42;;;;;;;;;;;18.90;54.90;;;;;;5088703;28;19939;-67
2022/09/19 02:57:09;;;;;;;;;;;18.80;55.10;;;;;;5088298;28;19921;-67
2022/09/19 02:59:37;;;;;;;;;;;18.70;55.20;;;;;;5089436;28;19983;-67
2022/09/19 03:02:04;;;;;;;;;;;18.60;55.40;;;;;;5089475;28;19916;-67
2022/09/19 03:04:32;;;;;;;;;;;18.50;55.60;;;;;;5088199;28;19916;-67
2022/09/19 03:07:06;;;;;;;;;;;18.50;55.80;;;;;;5089510;28;19920;-67
2022/09/19 03:09:31;;;;;;;;;;;18.40;55.90;;;;;;5089298;28;19917;-67
2022/09/19 03:12:18;;;;;;;;;;;18.30;56.00;;;;;;5089345;28;20271;-67
2022/09/19 03:14:45;;;;;;;;;;;18.30;56.20;;;;;;5089158;28;19965;-67
2022/09/19 03:17:13;;;;;;;;;;;18.20;56.30;;;;;;5088186;28;20375;-67
2022/09/19 03:19:41;;;;;;;;;;;18.20;56.40;;;;;;5089128;28;19917;-67
2022/09/19 03:22:07;;;;;;;;;;;18.20;56.60;;;;;;5088218;28;20211;-67
2022/09/19 03:24:36;;;;;;;;;;;18.20;56.60;;;;;;5087758;28;19924;-67
2022/09/19 03:27:01;;;;;;;;;;;18.20;56.60;;;;;;5087758;28;20296;-67
2022/09/19 03:29:27;;;;;;;;;;;18.10;56.60;;;;;;5087498;28;19921;-66
2022/09/19 03:31:53;;;;;;;;;;;18.20;56.70;;;;;;5087640;28;19927;-67
2022/09/19 03:34:19;;;;;;;;;;;18.20;56.70;;;;;;5088928;28;19916;-67
2022/09/19 03:36:45;;;;;;;;;;;18.20;56.60;;;;;;5070509;28;19928;-68
2022/09/19 03:39:11;;;;;;;;;;;18.20;56.60;;;;;;5109153;28;19920;-67
2022/09/19 03:41:38;;;;;;;;;;;18.30;56.50;;;;;;5091044;28;20287;-66
2022/09/19 03:44:04;;;;;;;;;;;18.30;56.30;;;;;;5108069;28;19924;-67
2022/09/19 03:46:31;;;;;;;;;;;18.40;56.20;;;;;;5090906;28;19920;-67
2022/09/19 03:48:56;;;;;;;;;;;18.50;56.20;;;;;;5086140;28;19920;-67
2022/09/19 03:51:22;;;;;;;;;;;18.50;56.00;;;;;;5094373;28;20317;-67
2022/09/19 03:53:47;;;;;;;;;;;18.50;55.90;;;;;;5095306;28;19916;-66
2022/09/19 03:56:13;;;;;;;;;;;18.60;55.80;;;;;;5077025;28;19924;-66
2022/09/19 03:58:39;;;;;;;;;;;18.60;55.70;;;;;;5082428;28;19920;-67
2022/09/19 04:01:07;;;;;;;;;;;18.70;55.70;;;;;;5074727;28;20379;-67
2022/09/19 04:03:33;;;;;;;;;;;18.60;55.60;;;;;;5056863;28;19966;-67
2022/09/19 04:06:00;;;;;;;;;;;18.70;55.60;;;;;;5074770;28;19920;-67
2022/09/19 04:08:26;;;;;;;;;;;18.70;55.60;;;;;;5074712;28;19975;-67
2022/09/19 04:10:52;;;;;;;;;;;18.70;55.60;;;;;;5056972;28;19920;-67
2022/09/19 04:13:20;;;;;;;;;;;18.60;55.60;;;;;;5073232;28;19916;-67
2022/09/19 04:15:46;;;;;;;;;;;18.60;55.70;;;;;;5056968;28;20387;-67
2022/09/19 04:18:12;;;;;;;;;;;18.60;55.70;;;;;;5074439;28;20374;-68
2022/09/19 04:20:39;;;;;;;;;;;18.50;55.80;;;;;;5056527;28;19982;-67
2022/09/19 04:23:05;;;;;;;;;;;18.50;55.90;;;;;;5056477;28;20187;-67
2022/09/19 04:25:34;;;;;;;;;;;18.40;55.90;;;;;;5056397;28;19963;-67
2022/09/19 04:28:02;;;;;;;;;;;18.40;56.00;;;;;;5074310;28;19916;-67
2022/09/19 04:30:27;;;;;;;;;;;18.40;56.10;;;;;;5060535;28;19927;-67
2022/09/19 04:32:53;;;;;;;;;;;18.40;56.20;;;;;;5076272;28;19920;-67
2022/09/19 04:35:20;;;;;;;;;;;18.30;56.20;;;;;;5076733;28;19916;-67
2022/09/19 04:37:45;;;;;;;;;;;18.30;56.30;;;;;;5094208;28;19919;-67
2022/09/19 04:40:11;;;;;;;;;;;18.30;56.50;;;;;;5076266;28;20385;-67
2022/09/19 04:42:37;;;;;;;;;;;18.20;56.50;;;;;;5094562;28;20119;-67
2022/09/19 04:45:03;;;;;;;;;;;18.20;56.60;;;;;;5076428;28;20018;-67
2022/09/19 04:47:32;;;;;;;;;;;18.20;56.70;;;;;;5076085;28;19927;-67
2022/09/19 04:49:57;;;;;;;;;;;18.20;56.80;;;;;;5076176;28;20170;-67
2022/09/19 04:52:24;;;;;;;;;;;18.10;56.80;;;;;;5094187;28;20350;-67
2022/09/19 04:54:50;;;;;;;;;;;18.10;56.80;;;;;;5094040;28;20347;-67
2022/09/19 04:57:15;;;;;;;;;;;18.10;56.90;;;;;;5093907;28;19924;-67
2022/09/19 04:59:41;;;;;;;;;;;18.00;56.90;;;;;;5093684;28;20006;-68
2022/09/19 05:02:08;;;;;;;;;;;18.00;57.00;;;;;;5093149;28;20401;-67
2022/09/19 05:04:33;;;;;;;;;;;18.00;57.00;;;;;;5075637;28;19971;-67
2022/09/19 05:06:59;;;;;;;;;;;18.00;57.10;;;;;;5094022;28;19963;-66
2022/09/19 05:09:25;;;;;;;;;;;18.10;57.10;;;;;;5075609;28;19942;-67
2022/09/19 05:11:50;;;;;;;;;;;18.10;57.10;;;;;;5075830;28;19916;-67
2022/09/19 05:14:17;;;;;;;;;;;18.10;57.00;;;;;;5091937;28;19924;-67
2022/09/19 05:16:43;;;;;;;;;;;18.10;57.00;;;;;;5093598;28;19954;-65
2022/09/19 05:19:08;;;;;;;;;;;18.20;57.10;;;;;;5073624;28;20380;-65
2022/09/19 05:21:34;;;;;;;;;;;18.50;56.80;;;;;;5091583;28;20286;-65
2022/09/19 05:24:00;;;;;;;;;;;19.20;55.60;;;;;;5073651;28;20007;-65
2022/09/19 05:26:26;;;;;;;;;;;20.30;54.00;;;;;;5073460;28;20015;-65
2022/09/19 05:28:51;;;;;;;;;;;21.20;52.20;;;;;;5072859;28;19920;-65
2022/09/19 05:31:19;;;;;;;;;;;21.90;50.80;;;;;;5090903;28;20307;-67
2022/09/19 05:33:44;;;;;;;;;;;22.30;49.80;;;;;;5074400;28;19916;-67
2022/09/19 05:36:10;;;;;;;;;;;22.60;49.10;;;;;;5092198;28;20045;-66
2022/09/19 05:38:36;;;;;;;;;;;22.80;48.70;;;;;;5069796;28;20384;-65
2022/09/19 05:41:02;;;;;;;;;;;23.00;48.40;;;;;;5069218;28;19963;-66
2022/09/19 05:43:28;;;;;;;;;;;23.20;48.00;;;;;;5065778;28;19923;-67
2022/09/19 05:45:55;;;;;;;;;;;23.40;47.50;;;;;;5068781;28;19920;-66
2022/09/19 05:48:21;;;;;;;;;;;23.60;47.20;;;;;;5070333;28;19921;-67
2022/09/19 05:50:47;;;;;;;;;;;23.80;47.00;;;;;;5068952;28;20249;-66
2022/09/19 05:55:59;;;;;;;;;;;23.90;46.60;;;;;;5069386;28;19921;-68
2022/09/19 05:58:25;;;;;;;;;;;24.10;46.40;;;;;;5068450;28;20292;-67
2022/09/19 06:00:51;;;;;;;;;;;24.10;46.30;;;;;;5067088;28;19924;-67
2022/09/19 06:03:20;;;;;;;;;;;24.00;46.30;;;;;;5066746;28;20419;-68
2022/09/19 06:05:48;;;;;;;;;;;23.90;46.20;;;;;;5060874;28;20220;-68
2022/09/19 06:08:14;;;;;;;;;;;23.80;46.50;;;;;;5063588;28;19920;-66
2022/09/19 06:10:41;;;;;;;;;;;23.90;46.50;;;;;;5058823;28;19928;-67
2022/09/19 06:13:10;;;;;;;;;;;23.90;46.30;;;;;;5054934;28;20384;-69
2022/09/19 06:15:36;;;;;;;;;;;23.90;46.30;;;;;;5058622;28;19921;-67
2022/09/19 06:18:01;;;;;;;;;;;24.10;46.40;;;;;;5066702;28;20307;-67
2022/09/19 06:20:27;;;;;;;;;;;24.20;46.10;;;;;;5063298;28;20372;-67
2022/09/19 06:23:01;;;;;;;;;;;24.30;45.90;;;;;;5056500;28;20139;-67
2022/09/19 06:25:28;;;;;;;;;;;24.40;45.70;;;;;;5053884;28;19921;-67
2022/09/19 06:27:55;;;;;;;;;;;24.50;45.60;;;;;;5053031;28;20102;-67
2022/09/19 06:30:20;;;;;;;;;;;24.50;45.60;;;;;;5054327;28;19928;-67
2022/09/19 06:32:46;;;;;;;;;;;24.50;45.60;;;;;;5043951;28;20433;-69
2022/09/19 06:35:11;;;;;;;;;;;24.40;45.50;;;;;;5050278;28;20476;-67
2022/09/19 06:37:37;;;;;;;;;;;24.50;45.50;;;;;;5052486;28;19978;-68
2022/09/19 06:40:02;;;;;;;;;;;24.50;45.60;;;;;;5048289;28;19929;-70
2022/09/19 06:42:29;;;;;;;;;;;24.30;45.70;;;;;;5050997;28;19924;-67
2022/09/19 06:44:54;;;;;;;;;;;24.20;46.10;;;;;;5047649;28;19927;-70
2022/09/19 06:47:22;;;;;;;;;;;24.10;46.30;;;;;;5049674;28;19932;-67
2022/09/19 06:49:48;;;;;;;;;;;24.10;46.40;;;;;;5053696;28;19920;-68
2022/09/19 06:52:13;;;;;;;;;;;24.10;46.60;;;;;;5052443;28;19925;-68
2022/09/19 06:54:39;;;;;;;;;;;24.10;46.70;;;;;;5051766;28;19928;-67
2022/09/19 06:57:05;;;;;;;;;;;24.10;46.70;;;;;;5066825;28;20102;-73
2022/09/19 06:59:30;;;;;;;;;;;24.20;46.60;;;;;;5047348;28;19935;-79
2022/09/19 07:01:57;;;;;;;;;;;24.20;46.50;;;;;;5048179;28;19925;-74
2022/09/19 07:04:23;;;;;;;;;;;24.40;46.40;;;;;;5052155;28;20228;-72
2022/09/19 07:06:48;;;;;;;;;;;24.50;46.20;;;;;;5047614;28;19925;-69
2022/09/19 07:09:14;;;;;;;;;;;24.50;46.20;;;;;;5044676;28;20143;-67
2022/09/19 07:11:39;;;;;;;;;;;24.50;46.40;;;;;;5045867;28;20398;-66
2022/09/19 07:14:05;;;;;;;;;;;24.50;46.40;;;;;;5046326;28;20396;-69
2022/09/19 07:16:31;;;;;;;;;;;24.50;46.30;;;;;;5045946;28;19924;-67
2022/09/19 07:18:56;;;;;;;;;;;24.50;46.40;;;;;;5049231;28;19948;-67
2022/09/19 07:21:22;;;;;;;;;;;24.30;46.50;;;;;;5048406;28;20288;-68
2022/09/19 07:23:48;;;;;;;;;;;24.20;46.70;;;;;;5043756;28;19928;-75
2022/09/19 07:26:14;;;;;;;;;;;24.10;47.10;;;;;;5065456;28;20013;-72
2022/09/19 07:28:40;;;;;;;;;;;24.10;47.30;;;;;;5059681;28;19939;-76
2022/09/19 07:31:05;;;;;;;;;;;23.90;47.50;;;;;;5069593;28;19928;-76
2022/09/19 07:33:31;;;;;;;;;;;23.80;47.80;;;;;;5052846;28;19933;-68
2022/09/19 07:35:57;;;;;;;;;;;23.70;48.10;;;;;;5053205;28;20442;-72
2022/09/19 07:38:23;;;;;;;;;;;23.50;48.40;;;;;;5051906;28;20335;-67
2022/09/19 07:40:49;;;;;;;;;;;23.50;48.60;;;;;;5053001;28;19931;-69
2022/09/19 07:43:16;;;;;;;;;;;23.40;48.80;;;;;;5059542;28;19924;-70
2022/09/19 07:45:44;;;;;;;;;;;23.30;49.00;;;;;;5053228;28;19932;-72
2022/09/19 07:48:09;;;;;;;;;;;23.20;49.10;;;;;;5069840;28;19924;-72
2022/09/19 07:50:35;;;;;;;;;;;23.10;49.30;;;;;;5054914;28;19950;-74
2022/09/19 07:53:02;;;;;;;;;;;23.10;49.50;;;;;;5053893;28;19958;-71
2022/09/19 07:55:27;;;;;;;;;;;23.00;49.70;;;;;;5055284;28;20016;-70
2022/09/19 07:57:55;;;;;;;;;;;23.00;49.80;;;;;;5051341;28;20103;-70
2022/09/19 08:00:22;;;;;;;;;;;22.90;49.90;;;;;;5052203;28;20388;-66
2022/09/19 08:03:04;;;;;;;;;;;22.80;50.10;;;;;;5054019;28;20351;-65
2022/09/19 08:05:34;;;;;;;;;;;22.70;50.20;;;;;;5046713;28;19931;-66
2022/09/19 08:07:59;;;;;;;;;;;22.70;50.50;;;;;;5053189;28;19924;-65
2022/09/19 08:10:25;;;;;;;;;;;22.70;50.70;;;;;;5055613;28;19974;-62
2022/09/19 08:12:50;;;;;;;;;;;22.60;50.80;;;;;;5053079;28;20262;-65
2022/09/19 08:15:17;;;;;;;;;;;22.60;51.10;;;;;;5053446;28;20019;-70
2022/09/19 08:17:53;;;;;;;;;;;22.50;51.20;;;;;;5048851;28;19928;-67
2022/09/19 08:20:19;;;;;;;;;;;22.40;51.60;;;;;;5055161;28;19974;-65
2022/09/19 08:22:45;;;;;;;;;;;22.30;51.80;;;;;;5067891;28;19932;-68
2022/09/19 08:25:11;;;;;;;;;;;22.20;52.10;;;;;;5047436;28;19925;-68
2022/09/19 08:27:37;;;;;;;;;;;22.00;52.30;;;;;;5063420;28;20394;-69
2022/09/19 08:30:04;;;;;;;;;;;21.90;52.50;;;;;;5058246;28;19943;-69
2022/09/19 08:32:29;;;;;;;;;;;21.80;52.90;;;;;;5053429;28;19932;-72
2022/09/19 08:34:55;;;;;;;;;;;21.60;53.10;;;;;;5068021;28;19925;-76
2022/09/19 08:37:21;;;;;;;;;;;21.60;53.50;;;;;;5056834;28;19928;-78
2022/09/19 08:40:18;;;;;;;;;;;21.50;53.70;;;;;;5058203;28;20505;-72
2022/09/19 08:42:38;;;;;;;;;;;21.40;53.80;;;;;;5053621;28;19928;-73
2022/09/19 08:45:13;;;;;;;;;;;21.40;54.10;;;;;;5056338;28;19929;-80
2022/09/19 08:47:40;;;;;;;;;;;21.30;54.20;;;;;;5058865;28;19946;-73
2022/09/19 08:50:25;;;;;;;;;;;21.20;54.40;;;;;;5045856;28;19935;-77
2022/09/19 08:52:53;;;;;;;;;;;21.20;54.60;;;;;;5049597;28;19932;-77
2022/09/19 08:55:21;;;;;;;;;;;21.20;54.70;;;;;;5049393;28;19920;-70
2022/09/19 08:57:49;;;;;;;;;;;21.20;54.90;;;;;;5050998;28;19932;-68
2022/09/19 09:00:18;;;;;;;;;;;21.20;55.20;;;;;;5052478;28;19920;-67
2022/09/19 09:02:51;;;;;;;;;;;21.10;54.90;;;;;;5055233;28;19935;-67
2022/09/19 09:05:19;;;;;;;;;;;21.20;55.00;;;;;;5050671;28;19924;-67
2022/09/19 09:07:55;;;;;;;;;;;21.00;55.00;;;;;;5055735;28;19946;-68
2022/09/19 09:10:30;;;;;;;;;;;21.00;55.30;;;;;;5052153;28;19924;-67
2022/09/19 09:13:15;;;;;;;;;;;21.00;55.30;;;;;;5050085;28;19929;-69
2022/09/19 09:18:48;;;;;;;;;;;20.90;55.40;;;;;;5103144;27;19965;-69
2022/09/19 09:21:19;;;;;;;;;;;20.90;55.60;;;;;;5109828;28;20061;-68
2022/09/19 09:23:48;;;;;;;;;;;20.90;55.70;;;;;;5105384;28;20010;-65
2022/09/19 09:26:15;;;;;;;;;;;20.80;55.80;;;;;;5110779;28;20013;-67
2022/09/19 09:28:44;;;;;;;;;;;20.80;55.90;;;;;;5104230;27;20069;-66
2022/09/19 09:31:15;;;;;;;;;;;20.80;55.90;;;;;;5108969;28;19927;-68
2022/09/19 09:33:48;;;;;;;;;;;20.80;56.10;;;;;;5105764;28;19965;-65
2022/09/19 09:36:15;;;;;;;;;;;20.80;56.20;;;;;;5102999;28;20511;-64
2022/09/19 09:38:49;;;;;;;;;;;20.80;56.20;;;;;;5106415;28;19927;-64
2022/09/19 09:41:52;;;;;;;;;;;20.80;56.20;;;;;;5103573;28;20652;-66
2022/09/19 09:49:29;;;;;;;;;;;20.90;57.10;;;;;;5083030;27;19924;-66
2022/09/19 09:52:17;;;;;;;;;;;21.10;56.00;;;;;;5067299;28;20416;-76
2022/09/19 09:57:53;;;;;;;;;;;21.30;55.50;;;;;;5049491;28;20483;-67
2022/09/19 10:03:43;;;;;;;;;;;22.00;54.40;;;;;;5045383;28;19968;-65
2022/09/19 10:06:29;;;;;;;;;;;22.30;53.60;;;;;;5052064;28;19932;-65
2022/09/19 10:11:45;;;;;;;;;;;22.90;52.60;;;;;;5083868;27;20483;-64
2022/09/19 10:14:28;;;;;;;;;;;23.10;52.20;;;;;;5119069;27;19920;-63
2022/09/19 10:17:02;;;;;;;;;;;23.20;51.90;;;;;;5083493;28;19928;-64
2022/09/19 10:19:35;;;;;;;;;;;23.30;51.70;;;;;;5089818;28;20405;-63
2022/09/19 10:22:00;;;;;;;;;;;23.30;51.50;;;;;;5087970;28;19985;-64
2022/09/19 10:24:46;;;;;;;;;;;23.40;51.50;;;;;;5086656;28;19928;-64
2022/09/19 10:27:12;;;;;;;;;;;23.30;51.50;;;;;;5101398;28;20258;-64
2022/09/19 10:32:35;;;;;;;;;;;23.00;52.00;;;;;;5102728;27;1864921;-64
2022/09/19 10:35:13;;;;;;;;;;;23.00;52.20;;;;;;5148843;27;20154;-63
2022/09/19 10:37:40;;;;;;;;;;;22.90;52.40;;;;;;5146871;27;19946;-64
2022/09/19 10:40:13;;;;;;;;;;;22.80;52.70;;;;;;5141096;27;20132;-63
2022/09/19 10:42:41;;;;;;;;;;;22.60;52.80;;;;;;5144790;27;19934;-65
2022/09/19 10:45:25;;;;;;;;;;;22.50;53.00;;;;;;5148442;27;21601;-65
2022/09/19 10:47:53;;;;;;;;;;;22.40;53.30;;;;;;5157864;27;20384;-69
2022/09/19 10:50:19;;;;;;;;;;;22.40;53.60;;;;;;5152947;27;19933;-67
2022/09/19 10:52:46;;;;;;;;;;;22.40;53.70;;;;;;5150237;27;20695;-66
2022/09/19 10:55:13;;;;;;;;;;;22.30;53.80;;;;;;5165830;27;19923;-68
2022/09/19 11:00:25;;;;;;;;;;;22.50;53.70;;;;;;5061445;28;19928;-67
2022/09/19 11:05:38;;;;;;;;;;;22.50;53.50;;;;;;5081041;27;20413;-68
2022/09/19 11:08:21;;;;;;;;;;;22.50;53.50;;;;;;5116432;27;19928;-69
2022/09/19 11:10:47;;;;;;;;;;;22.60;53.60;;;;;;5086386;28;19923;-66
2022/09/19 11:13:14;;;;;;;;;;;22.50;53.60;;;;;;5095483;28;19924;-66
2022/09/19 11:15:49;;;;;;;;;;;22.50;53.70;;;;;;5085605;28;19992;-67
2022/09/19 11:18:26;;;;;;;;;;;22.40;53.80;;;;;;5086113;28;19928;-66
2022/09/19 11:26:48;;;;;;;;;;;22.30;54.20;;;;;;5064547;28;19931;-67
2022/09/19 11:40:21;;;;;;;;;;;22.00;55.00;;;;;;5066435;28;19925;-66
2022/09/19 11:43:07;;;;;;;;;;;21.90;55.20;;;;;;5081545;28;20746;-66
2022/09/19 11:45:41;;;;;;;;;;;21.80;55.30;;;;;;5066979;28;20293;-70
2022/09/19 11:53:42;;;;;;;;;;;21.70;55.50;;;;;;5044052;28;19929;-70
2022/09/19 12:09:48;;;;;;;;;;;22.70;53.80;;;;;;5065045;28;20308;-69
2022/09/19 12:12:16;;;;;;;;;;;23.00;53.20;;;;;;5064395;28;19932;-75
2022/09/19 12:14:47;;;;;;;;;;;23.30;52.70;;;;;;5052745;28;19924;-69
2022/09/19 12:17:25;;;;;;;;;;;23.50;52.30;;;;;;5054886;28;20380;-69
2022/09/19 12:19:57;;;;;;;;;;;23.70;52.00;;;;;;5073446;28;19928;-69
2022/09/19 12:22:25;;;;;;;;;;;23.80;51.90;;;;;;5043368;28;19929;-69
2022/09/19 12:24:56;;;;;;;;;;;23.90;51.70;;;;;;5046284;28;20370;-70
2022/09/19 12:27:41;;;;;;;;;;;24.00;51.60;;;;;;5065595;28;19998;-72
2022/09/19 12:35:50;;;;;;;;;;;24.10;51.60;;;;;;5066330;28;19924;-69
2022/09/19 12:41:16;;;;;;;;;;;23.90;51.90;;;;;;5087054;27;19916;-70
2022/09/19 12:49:12;;;;;;;;;;;23.60;52.70;;;;;;5065590;27;19924;-69
2022/09/19 12:51:49;;;;;;;;;;;23.60;52.90;;;;;;5068687;28;19933;-74
2022/09/19 12:54:36;;;;;;;;;;;23.50;53.00;;;;;;5066264;28;20471;-71
2022/09/19 12:57:06;;;;;;;;;;;23.50;53.20;;;;;;5063016;28;19925;-67
2022/09/19 12:59:35;;;;;;;;;;;23.40;53.40;;;;;;5065059;28;19956;-69
2022/09/19 13:07:31;;;;;;;;;;;23.10;54.20;;;;;;5064198;28;19940;-67
2022/09/19 13:10:07;;;;;;;;;;;23.10;54.40;;;;;;5055752;28;19947;-71
2022/09/19 13:15:16;;;;;;;;;;;22.90;54.80;;;;;;5081726;28;19916;-69
2022/09/19 13:23:38;;;;;;;;;;;22.80;55.40;;;;;;5060974;28;19928;-70
2022/09/19 13:26:24;;;;;;;;;;;22.70;55.60;;;;;;5064959;28;19921;-70
2022/09/19 13:28:54;;;;;;;;;;;22.60;55.70;;;;;;5070948;28;19924;-69
2022/09/19 13:31:23;;;;;;;;;;;22.60;55.70;;;;;;5084893;28;19971;-67
2022/09/19 13:33:50;;;;;;;;;;;22.60;55.60;;;;;;5060245;28;20205;-68
2022/09/19 13:39:07;;;;;;;;;;;22.50;55.50;;;;;;5104411;27;19920;-67
2022/09/19 13:44:28;;;;;;;;;;;22.30;55.50;;;;;;5105282;27;19952;-65
2022/09/19 13:47:07;;;;;;;;;;;22.30;55.00;;;;;;5102060;28;19977;-65
2022/09/19 13:52:31;;;;;;;;;;;22.30;54.90;;;;;;5102219;27;19913;-68
2022/09/19 13:55:02;;;;;;;;;;;22.30;55.00;;;;;;5115742;28;19921;-64
2022/09/19 13:57:29;;;;;;;;;;;22.30;55.10;;;;;;5081814;28;19935;-66
2022/09/19 13:59:58;;;;;;;;;;;22.40;54.60;;;;;;5083306;28;19982;-62
2022/09/19 14:02:27;;;;;;;;;;;22.40;54.50;;;;;;5117853;28;19920;-63
2022/09/19 14:04:58;;;;;;;;;;;22.50;54.20;;;;;;5080312;28;19970;-64
2022/09/19 14:10:16;;;;;;;;;;;22.40;53.80;;;;;;5106057;27;19919;-65
2022/09/19 14:20:55;;;;;;;;;;;22.70;53.70;;;;;;5105337;27;19926;-70
2022/09/19 14:23:22;;;;;;;;;;;22.60;53.20;;;;;;5101302;28;20003;-69
2022/09/19 14:25:54;;;;;;;;;;;22.60;52.90;;;;;;5093038;28;19927;-67
2022/09/19 14:36:27;;;;;;;;;;;22.20;53.30;;;;;;5091198;27;1863292;-70
2022/09/19 14:39:11;;;;;;;;;;;22.10;53.10;;;;;;5121955;27;19927;-72
2022/09/19 14:44:40;;;;;;;;;;;22.10;53.70;;;;;;5104084;27;19943;-69
2022/09/19 14:47:12;;;;;;;;;;;22.00;53.70;;;;;;5085555;28;19978;-69
2022/09/19 14:49:47;;;;;;;;;;;21.90;53.80;;;;;;5063546;28;20412;-70
2022/09/19 14:52:18;;;;;;;;;;;21.90;53.90;;;;;;5085253;28;19920;-69
2022/09/19 14:54:51;;;;;;;;;;;21.80;54.00;;;;;;5069369;28;19920;-69
2022/09/19 14:57:19;;;;;;;;;;;21.80;54.20;;;;;;5067318;28;19920;-69
2022/09/19 14:59:44;;;;;;;;;;;21.70;54.20;;;;;;5068799;28;19924;-69
2022/09/19 15:02:27;;;;;;;;;;;21.60;54.30;;;;;;5069747;28;20440;-71
2022/09/19 15:04:59;;;;;;;;;;;21.50;54.30;;;;;;5070672;28;19928;-69
2022/09/19 15:07:26;;;;;;;;;;;21.50;54.40;;;;;;5087958;28;19942;-70
2022/09/19 15:09:52;;;;;;;;;;;21.40;54.40;;;;;;5088586;28;19928;-69
2022/09/19 15:15:01;;;;;;;;;;;21.30;54.60;;;;;;5089213;28;19913;-70
2022/09/19 15:17:28;;;;;;;;;;;21.20;54.70;;;;;;5088919;28;19920;-69
2022/09/19 15:19:56;;;;;;;;;;;21.20;54.70;;;;;;5087404;28;20077;-69
2022/09/19 15:25:07;;;;;;;;;;;21.10;55.00;;;;;;5088648;28;19919;-69
2022/09/19 15:27:34;;;;;;;;;;;21.00;55.00;;;;;;5087278;28;19999;-69
2022/09/19 15:30:08;;;;;;;;;;;20.90;55.00;;;;;;5088019;28;19927;-69
2022/09/19 15:32:34;;;;;;;;;;;20.90;55.10;;;;;;5086748;28;19920;-69
2022/09/19 15:35:03;;;;;;;;;;;20.90;55.10;;;;;;5087000;28;19920;-69
2022/09/19 15:37:31;;;;;;;;;;;20.90;55.20;;;;;;5087317;28;19982;-69
2022/09/19 15:39:57;;;;;;;;;;;20.80;55.10;;;;;;5087732;28;20165;-69
2022/09/19 15:42:23;;;;;;;;;;;20.80;55.10;;;;;;5089420;28;20282;-69
2022/09/19 15:44:51;;;;;;;;;;;20.80;55.10;;;;;;5070795;28;19931;-72
2022/09/19 15:47:19;;;;;;;;;;;20.70;55.10;;;;;;5088316;28;20297;-69
2022/09/19 15:49:48;;;;;;;;;;;20.70;55.10;;;;;;5089372;28;19924;-69
2022/09/19 15:52:27;;;;;;;;;;;20.70;55.00;;;;;;5089436;28;19920;-69
2022/09/19 15:54:53;;;;;;;;;;;20.70;55.00;;;;;;5089414;28;20297;-69
2022/09/19 16:00:01;;;;;;;;;;;20.70;55.00;;;;;;5109748;27;19912;-69
2022/09/19 16:02:31;;;;;;;;;;;20.70;55.00;;;;;;5108976;28;19927;-69
2022/09/19 16:05:14;;;;;;;;;;;20.70;55.00;;;;;;5091534;28;19962;-69
2022/09/19 16:10:31;;;;;;;;;;;20.70;54.90;;;;;;5079997;28;19920;-68
2022/09/19 16:12:57;;;;;;;;;;;20.60;54.90;;;;;;5092100;28;20430;-68
2022/09/19 16:15:33;;;;;;;;;;;20.60;54.80;;;;;;5091471;28;20019;-72
2022/09/19 16:20:39;;;;;;;;;;;20.50;54.70;;;;;;5089656;28;19919;-69
2022/09/19 16:23:12;;;;;;;;;;;20.50;54.70;;;;;;5088542;28;20003;-68
2022/09/19 16:28:21;;;;;;;;;;;20.50;54.70;;;;;;5089886;28;19912;-68
2022/09/19 16:30:56;;;;;;;;;;;20.50;54.70;;;;;;5088377;28;19967;-73
2022/09/19 16:33:26;;;;;;;;;;;20.50;54.70;;;;;;5089899;28;20304;-68
2022/09/19 16:35:55;;;;;;;;;;;20.50;54.60;;;;;;5087977;28;19927;-68
2022/09/19 16:38:23;;;;;;;;;;;20.40;54.60;;;;;;5088367;28;20462;-69
2022/09/19 16:40:54;;;;;;;;;;;20.50;54.70;;;;;;5088021;28;20439;-72
2022/09/19 16:43:36;;;;;;;;;;;20.40;54.70;;;;;;5088431;28;20047;-69
2022/09/19 16:46:02;;;;;;;;;;;20.40;54.60;;;;;;5088455;28;19920;-69
2022/09/19 16:48:27;;;;;;;;;;;20.30;54.60;;;;;;5089430;28;19921;-68
2022/09/19 16:50:53;;;;;;;;;;;20.30;54.70;;;;;;5088204;28;20368;-69
2022/09/19 16:53:19;;;;;;;;;;;20.30;54.60;;;;;;5087544;28;19924;-69
2022/09/19 16:55:45;;;;;;;;;;;20.30;54.60;;;;;;5088134;28;19920;-69
2022/09/19 16:58:13;;;;;;;;;;;20.30;54.70;;;;;;5089620;28;19920;-69